Time;durP1;ratioP1;P1;durP2;ratioP2;P2;SDS_P1;SDS_P2;PMS_P1;PMS_P2;Temp;Humidity;BMP_temperature;BMP_pressure;BME280_temperature;BME280_humidity;BME280_pressure;Samples;Min_cycle;Max_cycle;Signal;HPM_P1;HPM_P2
2023/02/26 00:01:17;;;;;;;4.85;2.95;;;-0.90;96.30;;;;;;466116;255;27646;-77
2023/02/26 00:03:18;;;;;;;3.12;2.22;;;-0.90;97.20;;;;;;466141;255;27447;-78
2023/02/26 00:05:20;;;;;;;3.60;2.65;;;-0.80;95.70;;;;;;466107;255;27598;-77
2023/02/26 00:07:21;;;;;;;4.03;3.17;;;-0.90;96.20;;;;;;466105;255;27540;-77
2023/02/26 00:09:22;;;;;;;3.20;2.67;;;-0.90;96.40;;;;;;466096;255;28101;-78
2023/02/26 00:11:24;;;;;;;2.53;2.33;;;-0.90;98.00;;;;;;466060;255;29236;-78
2023/02/26 00:13:25;;;;;;;3.37;2.50;;;-0.90;99.50;;;;;;466098;255;28044;-77
2023/02/26 00:15:26;;;;;;;3.50;2.40;;;-0.90;99.90;;;;;;466146;255;27494;-78
2023/02/26 00:17:27;;;;;;;5.10;3.12;;;-0.90;99.90;;;;;;466114;255;27531;-77
2023/02/26 00:19:28;;;;;;;2.72;2.42;;;-0.90;98.70;;;;;;466134;255;27584;-79
2023/02/26 00:21:30;;;;;;;5.80;3.20;;;-1.00;99.50;;;;;;466106;255;27620;-77
2023/02/26 00:23:31;;;;;;;5.85;3.17;;;-1.00;99.90;;;;;;466163;253;27669;-78
2023/02/26 00:25:32;;;;;;;5.70;2.95;;;-0.90;99.90;;;;;;466128;255;27619;-79
2023/02/26 00:27:34;;;;;;;5.32;2.90;;;-0.90;99.90;;;;;;466138;255;27699;-79
2023/02/26 00:29:35;;;;;;;5.30;2.70;;;-0.90;99.90;;;;;;466109;255;28074;-78
2023/02/26 00:31:36;;;;;;;5.80;3.05;;;-1.00;99.90;;;;;;466116;254;28059;-77
2023/02/26 00:33:37;;;;;;;5.65;2.50;;;-1.00;99.90;;;;;;466114;255;28009;-77
2023/02/26 00:35:38;;;;;;;4.75;2.87;;;-1.00;99.90;;;;;;466166;255;27586;-78
2023/02/26 00:37:40;;;;;;;2.60;2.40;;;-1.00;99.90;;;;;;466146;253;27634;-79
2023/02/26 00:39:41;;;;;;;3.65;2.58;;;-1.10;99.90;;;;;;466149;255;27567;-79
2023/02/26 00:41:42;;;;;;;4.78;3.12;;;-1.10;99.90;;;;;;466097;255;27541;-77
2023/02/26 00:43:43;;;;;;;2.87;2.65;;;-1.10;99.90;;;;;;466115;255;28185;-77
2023/02/26 00:45:45;;;;;;;6.93;3.10;;;-1.20;99.90;;;;;;466071;255;28057;-77
2023/02/26 00:47:47;;;;;;;4.18;2.95;;;-1.20;99.90;;;;;;466115;255;28103;-78
2023/02/26 00:49:47;;;;;;;2.67;2.47;;;-1.20;99.90;;;;;;466024;255;27662;-79
2023/02/26 00:51:49;;;;;;;5.30;3.00;;;-1.20;99.90;;;;;;466064;255;27563;-78
2023/02/26 00:53:50;;;;;;;5.30;2.50;;;-1.20;99.90;;;;;;466077;254;27653;-77
2023/02/26 00:55:51;;;;;;;3.80;2.87;;;-1.20;99.90;;;;;;466067;255;27665;-77
2023/02/26 00:57:52;;;;;;;3.40;2.58;;;-1.20;99.90;;;;;;466093;255;27591;-78
2023/02/26 00:59:54;;;;;;;3.05;2.45;;;-1.30;99.90;;;;;;466023;255;27667;-77
2023/02/26 01:01:55;;;;;;;3.97;2.40;;;-1.30;99.90;;;;;;466076;255;27670;-77
2023/02/26 01:03:56;;;;;;;3.22;2.60;;;-1.20;99.90;;;;;;465971;255;28019;-78
2023/02/26 01:05:57;;;;;;;3.37;2.62;;;-1.20;99.90;;;;;;466184;253;28101;-78
2023/02/26 01:07:59;;;;;;;4.93;2.72;;;-1.30;99.90;;;;;;466081;255;29249;-78
2023/02/26 01:10:00;;;;;;;3.12;2.83;;;-1.30;99.90;;;;;;466103;255;27577;-78
2023/02/26 01:12:01;;;;;;;6.82;3.12;;;-1.50;99.90;;;;;;466115;255;27577;-78
2023/02/26 01:14:02;;;;;;;4.57;3.00;;;-1.60;99.90;;;;;;466072;255;27546;-77
2023/02/26 01:16:04;;;;;;;3.65;3.35;;;-1.60;99.90;;;;;;466249;253;27699;-77
2023/02/26 01:18:05;;;;;;;4.20;2.75;;;-1.50;99.90;;;;;;466077;255;27636;-77
2023/02/26 01:20:06;;;;;;;3.97;2.85;;;-1.50;99.90;;;;;;466158;255;27546;-78
2023/02/26 01:22:07;;;;;;;2.70;2.50;;;-1.50;99.90;;;;;;466099;255;29250;-78
2023/02/26 01:24:09;;;;;;;4.15;2.83;;;-1.50;99.90;;;;;;466137;255;27549;-78
2023/02/26 01:26:10;;;;;;;3.17;2.85;;;-1.40;99.90;;;;;;466140;255;27581;-78
2023/02/26 01:28:11;;;;;;;3.15;2.90;;;-1.40;99.90;;;;;;466279;253;27618;-77
2023/02/26 01:30:12;;;;;;;3.95;2.80;;;-1.30;99.90;;;;;;465975;255;27572;-78
2023/02/26 01:32:14;;;;;;;3.12;2.90;;;-1.40;99.90;;;;;;465940;255;28078;-79
2023/02/26 01:34:15;;;;;;;5.28;2.55;;;-1.30;99.90;;;;;;466138;255;27606;-78
2023/02/26 01:36:16;;;;;;;3.60;2.55;;;-1.30;99.90;;;;;;466129;255;27573;-78
2023/02/26 01:38:17;;;;;;;3.53;2.90;;;-1.20;99.90;;;;;;466100;255;28001;-80
2023/02/26 01:40:19;;;;;;;5.62;2.95;;;-1.20;99.90;;;;;;466110;255;28132;-78
2023/02/26 01:42:20;;;;;;;4.72;3.58;;;-1.20;99.90;;;;;;466122;255;28073;-78
2023/02/26 01:44:21;;;;;;;4.40;2.85;;;-1.10;99.90;;;;;;466075;255;27738;-78
2023/02/26 01:46:22;;;;;;;4.07;2.90;;;-1.20;99.90;;;;;;466119;255;27577;-78
2023/02/26 01:48:24;;;;;;;7.35;3.90;;;-1.20;99.90;;;;;;466139;253;27591;-78
2023/02/26 01:50:28;;;;;;;7.93;4.72;;;-1.20;99.90;;;;;;466074;255;27609;-78
2023/02/26 01:52:26;;;;;;;6.00;4.20;;;-1.20;99.90;;;;;;466141;255;27689;-78
2023/02/26 01:54:27;;;;;;;9.88;5.32;;;-1.20;99.90;;;;;;465967;255;27545;-78
2023/02/26 01:56:29;;;;;;;10.48;4.80;;;-1.20;99.90;;;;;;466072;255;27664;-78
2023/02/26 01:58:30;;;;;;;8.32;4.72;;;-1.30;99.90;;;;;;466116;255;27981;-78
2023/02/26 02:00:31;;;;;;;12.52;6.68;;;-1.30;99.90;;;;;;466123;254;28072;-77
2023/02/26 02:02:32;;;;;;;7.20;4.72;;;-1.30;99.90;;;;;;466121;255;27573;-78
2023/02/26 02:04:34;;;;;;;5.00;3.55;;;-1.30;99.90;;;;;;466147;255;27587;-77
2023/02/26 02:06:35;;;;;;;3.92;3.15;;;-1.30;99.90;;;;;;466122;255;27683;-76
2023/02/26 02:08:36;;;;;;;4.00;2.90;;;-1.30;99.90;;;;;;466115;255;27605;-77
2023/02/26 02:10:37;;;;;;;5.22;2.97;;;-1.30;99.90;;;;;;466000;255;27582;-77
2023/02/26 02:12:39;;;;;;;4.70;2.80;;;-1.30;99.90;;;;;;466130;255;27597;-78
2023/02/26 02:14:40;;;;;;;4.50;2.80;;;-1.30;99.90;;;;;;465736;255;27545;-77
2023/02/26 02:16:41;;;;;;;2.92;2.67;;;-1.30;99.90;;;;;;466124;255;27600;-78
2023/02/26 02:18:43;;;;;;;5.85;2.85;;;-1.30;99.90;;;;;;466091;255;28011;-78
2023/02/26 02:20:44;;;;;;;7.93;2.60;;;-1.30;99.90;;;;;;466142;253;29238;-78
2023/02/26 02:22:45;;;;;;;4.37;3.15;;;-1.30;99.90;;;;;;466089;255;27582;-78
2023/02/26 02:24:46;;;;;;;4.12;2.85;;;-1.30;99.90;;;;;;466118;255;27638;-78
2023/02/26 02:26:47;;;;;;;3.40;2.60;;;-1.20;99.90;;;;;;466115;255;27606;-78
2023/02/26 02:28:49;;;;;;;3.05;2.70;;;-1.30;99.90;;;;;;466109;255;27541;-78
2023/02/26 02:30:50;;;;;;;2.90;2.60;;;-1.30;99.90;;;;;;466103;255;27632;-78
2023/02/26 02:32:51;;;;;;;4.20;2.65;;;-1.30;99.90;;;;;;466131;255;27948;-78
2023/02/26 02:34:53;;;;;;;2.65;2.45;;;-1.30;99.90;;;;;;466125;255;27667;-78
2023/02/26 02:36:54;;;;;;;6.80;3.08;;;-1.30;99.90;;;;;;466055;255;28062;-79
2023/02/26 02:38:55;;;;;;;3.28;2.40;;;-1.30;99.90;;;;;;465828;255;28115;-78
2023/02/26 02:40:57;;;;;;;4.60;2.90;;;-1.40;99.90;;;;;;466111;255;28060;-78
2023/02/26 02:42:57;;;;;;;3.67;2.60;;;-1.40;99.90;;;;;;466125;255;27610;-78
2023/02/26 02:44:59;;;;;;;3.00;2.70;;;-1.40;99.90;;;;;;466142;255;27562;-78
2023/02/26 02:47:00;;;;;;;2.92;2.62;;;-1.40;99.90;;;;;;466161;254;27660;-79
2023/02/26 02:49:01;;;;;;;4.62;3.33;;;-1.40;99.90;;;;;;466130;255;27546;-79
2023/02/26 02:51:03;;;;;;;4.62;2.85;;;-1.40;99.90;;;;;;466094;255;27619;-78
2023/02/26 02:53:04;;;;;;;6.18;2.55;;;-1.30;99.90;;;;;;466115;255;27610;-78
2023/02/26 02:55:05;;;;;;;4.07;2.50;;;-1.30;99.90;;;;;;466155;255;27649;-77
2023/02/26 02:57:06;;;;;;;4.50;2.65;;;-1.30;99.90;;;;;;466173;254;27966;-78
2023/02/26 02:59:08;;;;;;;2.95;2.20;;;-1.20;99.90;;;;;;466050;255;28067;-78
2023/02/26 03:01:09;;;;;;;2.65;2.42;;;-1.20;99.90;;;;;;466107;255;28076;-77
2023/02/26 03:03:10;;;;;;;3.00;2.40;;;-1.20;99.90;;;;;;466128;255;27669;-78
2023/02/26 03:05:11;;;;;;;4.75;2.37;;;-1.30;99.90;;;;;;466103;255;27590;-77
2023/02/26 03:07:13;;;;;;;2.78;2.30;;;-1.20;99.90;;;;;;466049;255;27606;-78
2023/02/26 03:09:14;;;;;;;6.32;2.92;;;-1.30;99.90;;;;;;466105;253;27683;-78
2023/02/26 03:11:15;;;;;;;3.87;2.70;;;-1.20;99.90;;;;;;466113;253;27601;-77
2023/02/26 03:13:16;;;;;;;5.40;3.00;;;-1.30;99.90;;;;;;466106;255;27596;-77
2023/02/26 03:15:18;;;;;;;3.60;2.65;;;-1.30;99.90;;;;;;466078;255;27537;-77
2023/02/26 03:17:19;;;;;;;3.37;2.70;;;-1.30;99.90;;;;;;466102;255;28064;-77
2023/02/26 03:19:20;;;;;;;5.28;2.90;;;-1.30;99.90;;;;;;466211;253;27991;-80
2023/02/26 03:21:21;;;;;;;8.90;3.75;;;-1.30;99.90;;;;;;466124;255;29208;-78
2023/02/26 03:23:23;;;;;;;3.92;3.45;;;-1.30;99.90;;;;;;466140;255;27582;-78
2023/02/26 03:25:24;;;;;;;5.60;3.20;;;-1.30;99.90;;;;;;466117;255;27588;-78
2023/02/26 03:27:25;;;;;;;5.78;3.62;;;-1.40;99.90;;;;;;466129;255;27705;-78
2023/02/26 03:29:26;;;;;;;6.40;3.53;;;-1.40;99.90;;;;;;466081;255;27593;-77
2023/02/26 03:31:28;;;;;;;4.50;3.60;;;-1.50;99.90;;;;;;466112;255;27693;-78
2023/02/26 03:33:29;;;;;;;6.22;3.60;;;-1.50;99.90;;;;;;466139;253;27593;-77
2023/02/26 03:35:30;;;;;;;4.37;3.30;;;-1.60;99.90;;;;;;466179;253;27555;-78
2023/02/26 03:37:31;;;;;;;4.53;3.08;;;-1.60;99.90;;;;;;466083;255;28029;-77
2023/02/26 03:39:33;;;;;;;4.43;3.28;;;-1.70;99.90;;;;;;466076;255;28872;-79
2023/02/26 03:41:34;;;;;;;5.43;3.60;;;-1.80;99.90;;;;;;466075;255;29154;-78
2023/02/26 03:43:35;;;;;;;5.10;3.10;;;-1.90;99.90;;;;;;466121;255;27603;-77
2023/02/26 03:45:36;;;;;;;5.10;3.40;;;-1.90;99.90;;;;;;466177;253;27634;-77
2023/02/26 03:47:38;;;;;;;4.55;3.35;;;-1.90;99.90;;;;;;466087;255;27660;-78
2023/02/26 03:49:39;;;;;;;4.20;3.10;;;-1.90;99.90;;;;;;465961;255;27653;-77
2023/02/26 03:51:40;;;;;;;3.72;3.30;;;-1.90;99.90;;;;;;466112;255;27640;-78
2023/02/26 03:53:41;;;;;;;7.50;3.42;;;-1.90;99.90;;;;;;466128;255;27582;-78
2023/02/26 03:55:43;;;;;;;6.50;3.17;;;-1.90;99.90;;;;;;466121;255;27637;-78
2023/02/26 03:57:44;;;;;;;4.93;3.15;;;-1.90;99.90;;;;;;466116;255;29151;-77
2023/02/26 03:59:45;;;;;;;23.10;4.15;;;-2.00;99.90;;;;;;466072;255;28090;-77
2023/02/26 04:01:46;;;;;;;7.70;3.40;;;-2.00;99.90;;;;;;466087;255;29111;-78
2023/02/26 04:03:48;;;;;;;3.42;2.30;;;-2.00;99.90;;;;;;466103;255;27489;-78
2023/02/26 04:05:49;;;;;;;4.12;2.85;;;-2.00;99.90;;;;;;466129;255;27672;-77
2023/02/26 04:07:50;;;;;;;4.05;2.50;;;-2.00;99.90;;;;;;465961;255;27581;-78
2023/02/26 04:09:51;;;;;;;5.03;2.80;;;-1.90;99.90;;;;;;466102;255;27578;-78
2023/02/26 04:11:53;;;;;;;3.40;3.10;;;-1.90;99.90;;;;;;466111;255;27589;-78
2023/02/26 04:13:54;;;;;;;7.25;3.10;;;-1.90;99.90;;;;;;465949;255;27594;-78
2023/02/26 04:15:55;;;;;;;3.25;2.90;;;-1.90;99.90;;;;;;466134;255;27631;-77
2023/02/26 04:17:56;;;;;;;3.75;2.70;;;-2.00;99.90;;;;;;466144;255;28062;-78
2023/02/26 04:19:58;;;;;;;4.60;2.90;;;-2.00;99.90;;;;;;466133;255;29165;-78
2023/02/26 04:21:59;;;;;;;4.90;2.70;;;-2.10;99.90;;;;;;465925;255;28030;-77
2023/02/26 04:24:00;;;;;;;3.67;3.08;;;-2.10;99.90;;;;;;466070;255;27590;-79
2023/02/26 04:26:01;;;;;;;5.30;3.30;;;-2.10;99.90;;;;;;466088;255;27646;-78
2023/02/26 04:28:03;;;;;;;6.72;3.47;;;-2.20;99.90;;;;;;466091;255;27645;-78
2023/02/26 04:30:04;;;;;;;2.90;2.60;;;-2.40;99.90;;;;;;466067;255;27643;-77
2023/02/26 04:32:05;;;;;;;6.80;3.70;;;-2.40;99.90;;;;;;466080;255;27593;-77
2023/02/26 04:34:06;;;;;;;5.93;3.00;;;-2.40;99.90;;;;;;465920;255;27612;-77
2023/02/26 04:36:08;;;;;;;7.05;3.60;;;-2.50;99.90;;;;;;466027;255;27580;-77
2023/02/26 04:38:09;;;;;;;4.85;2.60;;;-2.30;99.90;;;;;;466116;255;27976;-78
2023/02/26 04:40:10;;;;;;;4.60;3.55;;;-2.20;99.90;;;;;;466085;255;29072;-78
2023/02/26 04:42:11;;;;;;;7.00;3.30;;;-2.00;99.90;;;;;;466157;253;27582;-77
2023/02/26 04:44:13;;;;;;;6.20;3.05;;;-1.90;99.90;;;;;;466095;255;27669;-78
2023/02/26 04:46:14;;;;;;;9.10;3.20;;;-1.80;99.90;;;;;;466110;255;27681;-78
2023/02/26 04:48:15;;;;;;;3.75;3.12;;;-1.80;99.90;;;;;;466103;255;27616;-78
2023/02/26 04:50:16;;;;;;;4.47;3.28;;;-1.70;99.90;;;;;;466110;252;27621;-78
2023/02/26 04:52:18;;;;;;;8.13;3.60;;;-1.80;99.90;;;;;;466104;255;27553;-77
2023/02/26 04:54:19;;;;;;;9.45;3.40;;;-1.90;99.90;;;;;;466039;254;27666;-78
2023/02/26 04:56:20;;;;;;;5.30;3.67;;;-2.00;99.90;;;;;;466098;255;27549;-78
2023/02/26 04:58:21;;;;;;;3.33;3.00;;;-2.00;99.90;;;;;;466109;255;28098;-77
2023/02/26 05:02:23;;;;;;;6.00;3.10;;;-1.80;99.90;;;;;;502070;233;40957;-77
2023/02/26 05:04:25;;;;;;;8.23;3.08;;;-1.80;99.90;;;;;;494122;240;27587;-77
2023/02/26 05:06:26;;;;;;;4.75;3.55;;;-1.90;99.90;;;;;;494108;240;27524;-76
2023/02/26 05:08:27;;;;;;;3.30;2.67;;;-2.00;99.90;;;;;;494110;240;28105;-77
2023/02/26 05:10:28;;;;;;;7.82;3.55;;;-2.00;99.90;;;;;;494125;239;27954;-76
2023/02/26 05:12:30;;;;;;;5.03;3.05;;;-2.00;99.90;;;;;;494152;240;29172;-76
2023/02/26 05:14:31;;;;;;;9.07;3.85;;;-2.10;99.90;;;;;;494114;240;27521;-77
2023/02/26 05:16:32;;;;;;;7.53;3.55;;;-2.00;99.90;;;;;;494139;240;27589;-76
2023/02/26 05:18:33;;;;;;;4.45;3.50;;;-2.00;99.90;;;;;;494139;240;27572;-78
2023/02/26 05:20:35;;;;;;;7.40;3.97;;;-2.00;99.90;;;;;;494134;240;27538;-76
2023/02/26 05:22:36;;;;;;;6.12;4.50;;;-2.00;99.90;;;;;;494087;240;27511;-77
2023/02/26 05:24:38;;;;;;;6.18;3.70;;;-2.00;99.90;;;;;;494049;240;27478;-77
2023/02/26 05:26:38;;;;;;;3.92;3.45;;;-2.00;99.90;;;;;;494137;240;27525;-77
2023/02/26 05:28:40;;;;;;;6.65;3.87;;;-2.00;99.90;;;;;;494130;240;28557;-76
2023/02/26 05:30:41;;;;;;;7.22;3.90;;;-2.00;99.90;;;;;;494083;240;27935;-76
2023/02/26 05:32:42;;;;;;;5.82;3.45;;;-2.00;99.90;;;;;;494105;240;28016;-79
2023/02/26 05:34:43;;;;;;;5.50;3.92;;;-2.00;99.90;;;;;;494116;240;27354;-76
2023/02/26 05:36:45;;;;;;;9.27;3.75;;;-2.00;99.90;;;;;;494099;240;27493;-76
2023/02/26 05:38:46;;;;;;;6.65;3.87;;;-2.00;99.90;;;;;;494126;240;27493;-77
2023/02/26 05:40:47;;;;;;;5.05;3.72;;;-2.10;99.90;;;;;;494119;240;27451;-77
2023/02/26 05:42:48;;;;;;;6.00;3.90;;;-2.10;99.90;;;;;;494133;240;27386;-77
2023/02/26 05:44:50;;;;;;;6.25;3.55;;;-2.00;99.90;;;;;;494104;240;27563;-76
2023/02/26 05:46:51;;;;;;;7.60;4.80;;;-2.00;99.90;;;;;;494020;240;27497;-77
2023/02/26 05:48:52;;;;;;;6.75;3.53;;;-2.00;99.90;;;;;;493964;237;27986;-78
2023/02/26 05:50:53;;;;;;;5.60;4.05;;;-1.90;99.90;;;;;;494139;240;27922;-77
2023/02/26 05:52:55;;;;;;;4.68;4.05;;;-1.90;99.90;;;;;;494119;240;27978;-78
2023/02/26 05:54:56;;;;;;;4.97;3.78;;;-2.00;99.90;;;;;;494092;240;27529;-76
2023/02/26 05:56:57;;;;;;;4.80;4.22;;;-2.00;99.90;;;;;;494119;240;27507;-77
2023/02/26 05:58:58;;;;;;;9.10;5.28;;;-2.00;99.90;;;;;;494045;240;27509;-76
2023/02/26 06:01:00;;;;;;;9.93;5.07;;;-2.10;99.90;;;;;;493723;240;27548;-77
2023/02/26 06:03:01;;;;;;;5.37;4.45;;;-2.10;99.90;;;;;;494095;240;27522;-77
2023/02/26 06:05:02;;;;;;;7.32;4.50;;;-2.10;99.90;;;;;;494007;240;27541;-77
2023/02/26 06:07:03;;;;;;;9.82;4.82;;;-2.00;99.90;;;;;;493906;240;27585;-77
2023/02/26 06:09:05;;;;;;;6.35;4.93;;;-2.10;99.90;;;;;;494053;240;28028;-77
2023/02/26 06:11:06;;;;;;;5.43;4.35;;;-2.00;99.90;;;;;;494067;240;27918;-76
2023/02/26 06:13:07;;;;;;;8.82;4.78;;;-2.00;99.90;;;;;;493993;237;28012;-76
2023/02/26 06:15:08;;;;;;;7.18;4.40;;;-2.00;99.90;;;;;;493963;241;27635;-76
2023/02/26 06:17:10;;;;;;;8.07;5.05;;;-2.00;99.90;;;;;;493944;241;27477;-77
2023/02/26 06:19:11;;;;;;;6.62;4.40;;;-1.90;99.90;;;;;;493998;241;27599;-78
2023/02/26 06:21:12;;;;;;;4.87;3.80;;;-2.00;99.90;;;;;;493956;241;27628;-76
2023/02/26 06:23:13;;;;;;;6.87;5.30;;;-1.90;99.90;;;;;;493900;241;27507;-77
2023/02/26 06:25:15;;;;;;;9.50;5.10;;;-1.90;99.90;;;;;;493978;241;27557;-77
2023/02/26 06:27:16;;;;;;;5.87;4.62;;;-1.90;99.90;;;;;;494007;241;27565;-77
2023/02/26 06:29:19;;;;;;;6.00;4.15;;;-1.90;99.90;;;;;;494019;241;27998;-77
2023/02/26 06:31:18;;;;;;;5.35;4.53;;;-2.00;99.90;;;;;;493920;241;27977;-77
2023/02/26 06:33:20;;;;;;;5.87;4.57;;;-1.90;99.90;;;;;;494021;241;28069;-77
2023/02/26 06:35:21;;;;;;;6.57;4.72;;;-1.90;99.90;;;;;;493996;241;27466;-77
2023/02/26 06:37:22;;;;;;;5.40;4.05;;;-1.90;99.90;;;;;;493988;241;27502;-77
2023/02/26 06:39:24;;;;;;;6.87;4.45;;;-1.90;99.90;;;;;;494017;241;27513;-79
2023/02/26 06:41:25;;;;;;;7.05;4.65;;;-1.90;99.90;;;;;;493994;239;27577;-77
2023/02/26 06:43:26;;;;;;;7.18;4.50;;;-1.90;99.90;;;;;;494044;241;27518;-79
2023/02/26 06:45:27;;;;;;;8.35;4.55;;;-2.00;99.90;;;;;;494035;241;27490;-77
2023/02/26 06:47:29;;;;;;;6.00;5.12;;;-1.90;99.90;;;;;;494007;241;27500;-77
2023/02/26 06:49:30;;;;;;;8.32;5.37;;;-1.80;99.90;;;;;;494056;241;28001;-78
2023/02/26 06:51:31;;;;;;;6.40;4.87;;;-1.80;99.90;;;;;;494036;241;28002;-77
2023/02/26 06:53:32;;;;;;;7.37;4.70;;;-1.90;99.90;;;;;;494024;241;29089;-77
2023/02/26 06:55:34;;;;;;;8.10;4.85;;;-1.90;99.90;;;;;;493995;241;27509;-76
2023/02/26 06:57:35;;;;;;;7.93;4.93;;;-1.90;99.90;;;;;;493969;240;27476;-76
2023/02/26 06:59:36;;;;;;;4.70;4.30;;;-1.90;99.90;;;;;;494030;241;27648;-77
2023/02/26 07:01:38;;;;;;;17.87;5.95;;;-1.80;99.90;;;;;;493964;241;27477;-77
2023/02/26 07:03:39;;;;;;;8.10;4.57;;;-1.80;99.90;;;;;;494017;241;27525;-78
2023/02/26 07:05:40;;;;;;;6.95;4.80;;;-1.80;99.90;;;;;;493984;241;27456;-79
2023/02/26 07:07:41;;;;;;;8.98;4.20;;;-1.90;99.90;;;;;;493957;241;27490;-77
2023/02/26 07:09:42;;;;;;;9.07;5.30;;;-1.80;99.90;;;;;;494016;237;27976;-77
2023/02/26 07:11:44;;;;;;;7.32;4.85;;;-1.70;99.90;;;;;;494007;241;28005;-77
2023/02/26 07:13:45;;;;;;;6.03;4.55;;;-1.80;99.90;;;;;;494007;241;29086;-77
2023/02/26 07:15:46;;;;;;;10.48;4.15;;;-1.80;99.90;;;;;;493900;241;27453;-77
2023/02/26 07:17:47;;;;;;;4.45;3.65;;;-1.70;99.90;;;;;;493946;241;27492;-76
2023/02/26 07:19:49;;;;;;;8.93;4.40;;;-1.70;99.90;;;;;;493996;241;27525;-79
2023/02/26 07:21:50;;;;;;;8.60;4.50;;;-1.80;99.90;;;;;;493594;241;27340;-77
2023/02/26 07:23:51;;;;;;;7.62;3.97;;;-1.70;99.90;;;;;;494002;241;27592;-77
2023/02/26 07:25:52;;;;;;;6.00;4.00;;;-1.70;99.90;;;;;;493969;241;27512;-77
2023/02/26 07:27:55;;;;;;;5.40;4.05;;;-1.70;99.90;;;;;;493994;241;27580;-77
2023/02/26 07:29:55;;;;;;;4.57;4.18;;;-1.60;99.90;;;;;;493955;241;27985;-79
2023/02/26 07:31:56;;;;;;;5.45;4.95;;;-1.50;99.90;;;;;;494011;241;29123;-77
2023/02/26 07:33:57;;;;;;;7.82;3.78;;;-1.70;99.90;;;;;;493994;241;27572;-77
2023/02/26 07:35:59;;;;;;;4.30;3.90;;;-1.60;99.90;;;;;;493956;241;27332;-77
2023/02/26 07:38:00;;;;;;;7.43;4.30;;;-1.60;99.90;;;;;;493992;241;27498;-77
2023/02/26 07:40:02;;;;;;;7.70;3.20;;;-1.60;99.90;;;;;;494014;241;27747;-77
2023/02/26 07:42:02;;;;;;;5.37;3.50;;;-1.40;99.90;;;;;;493996;241;27510;-77
2023/02/26 07:44:04;;;;;;;4.85;3.78;;;-1.40;99.90;;;;;;493998;241;27523;-77
2023/02/26 07:46:05;;;;;;;5.20;3.10;;;-1.30;99.90;;;;;;493936;241;27467;-77
2023/02/26 07:48:06;;;;;;;10.93;3.72;;;-1.40;99.90;;;;;;493992;241;27507;-77
2023/02/26 07:50:07;;;;;;;4.45;3.65;;;-1.30;99.90;;;;;;494019;241;27989;-77
2023/02/26 07:52:09;;;;;;;4.65;3.30;;;-1.50;99.90;;;;;;493993;241;27536;-76
2023/02/26 07:54:10;;;;;;;3.72;3.42;;;-1.40;99.90;;;;;;493999;241;27501;-77
2023/02/26 07:56:11;;;;;;;7.22;4.35;;;-1.50;99.90;;;;;;493970;237;27458;-77
2023/02/26 07:58:12;;;;;;;6.75;3.87;;;-1.50;99.90;;;;;;493963;241;27613;-77
2023/02/26 08:00:14;;;;;;;4.00;3.50;;;-1.40;99.90;;;;;;493974;241;27514;-79
2023/02/26 08:02:15;;;;;;;7.35;3.50;;;-1.40;99.90;;;;;;493995;241;27466;-78
2023/02/26 08:04:16;;;;;;;3.67;3.05;;;-1.50;99.90;;;;;;493883;241;27606;-77
2023/02/26 08:06:17;;;;;;;3.75;3.42;;;-1.20;99.90;;;;;;494002;241;27936;-76
2023/02/26 08:08:19;;;;;;;6.93;2.90;;;-1.20;99.90;;;;;;493982;241;27943;-78
2023/02/26 08:10:20;;;;;;;4.80;3.72;;;-1.40;99.90;;;;;;494042;241;29063;-78
2023/02/26 08:12:21;;;;;;;4.15;3.20;;;-1.40;99.90;;;;;;494038;241;27597;-77
2023/02/26 08:14:22;;;;;;;5.47;3.22;;;-1.40;99.90;;;;;;493987;241;27556;-77
2023/02/26 08:16:24;;;;;;;10.80;3.50;;;-1.40;99.90;;;;;;493994;241;27458;-77
2023/02/26 08:18:25;;;;;;;6.60;3.62;;;-1.30;99.90;;;;;;493999;241;27588;-77
2023/02/26 08:20:26;;;;;;;8.25;4.15;;;-1.30;99.90;;;;;;493969;241;27587;-78
2023/02/26 08:22:27;;;;;;;4.65;3.40;;;-1.20;99.90;;;;;;493705;241;27557;-78
2023/02/26 08:24:29;;;;;;;5.75;3.53;;;-1.50;99.90;;;;;;493986;241;27521;-78
2023/02/26 08:26:30;;;;;;;4.53;3.42;;;-1.40;99.90;;;;;;494049;241;28010;-78
2023/02/26 08:28:31;;;;;;;4.50;3.45;;;-1.50;99.90;;;;;;494024;241;28056;-78
2023/02/26 08:30:32;;;;;;;6.62;3.70;;;-1.30;99.90;;;;;;494087;241;29113;-80
2023/02/26 08:32:34;;;;;;;4.70;3.85;;;-1.40;99.90;;;;;;494086;241;27603;-77
2023/02/26 08:34:36;;;;;;;5.68;2.80;;;-1.30;99.90;;;;;;493972;237;27502;-78
2023/02/26 08:36:36;;;;;;;4.10;3.50;;;-1.30;99.90;;;;;;493941;241;27461;-77
2023/02/26 08:38:38;;;;;;;3.97;3.03;;;-1.30;99.90;;;;;;494004;241;27463;-77
2023/02/26 08:40:39;;;;;;;6.12;2.92;;;-1.20;99.90;;;;;;493887;239;27508;-77
2023/02/26 08:42:40;;;;;;;4.85;3.72;;;-1.30;99.90;;;;;;494009;241;27556;-77
2023/02/26 08:44:41;;;;;;;8.07;3.90;;;-1.30;99.90;;;;;;493967;241;27601;-78
2023/02/26 08:46:43;;;;;;;8.88;3.50;;;-1.20;99.90;;;;;;494086;241;28156;-79
2023/02/26 08:48:44;;;;;;;7.25;3.50;;;-1.30;99.90;;;;;;494062;241;27944;-78
2023/02/26 08:50:45;;;;;;;4.60;3.78;;;-1.20;99.90;;;;;;494061;241;29195;-77
2023/02/26 08:52:46;;;;;;;4.93;3.03;;;-1.20;99.90;;;;;;494005;240;27473;-78
2023/02/26 08:54:48;;;;;;;8.05;4.50;;;-1.20;99.90;;;;;;493993;241;27602;-79
2023/02/26 08:56:49;;;;;;;6.15;4.30;;;-1.30;99.90;;;;;;493995;241;27478;-77
2023/02/26 08:58:50;;;;;;;5.75;4.28;;;-1.20;99.90;;;;;;493993;237;27499;-77
2023/02/26 09:00:51;;;;;;;4.25;3.45;;;-1.20;99.90;;;;;;494102;241;27505;-78
2023/02/26 09:02:53;;;;;;;5.68;4.03;;;-1.40;99.90;;;;;;494042;241;27525;-77
2023/02/26 09:04:54;;;;;;;8.23;5.65;;;-1.40;99.90;;;;;;494038;241;27575;-78
2023/02/26 09:06:55;;;;;;;6.18;4.03;;;-1.20;99.90;;;;;;494040;241;28047;-80
2023/02/26 09:08:56;;;;;;;6.28;4.20;;;-1.30;99.90;;;;;;494015;241;28010;-75
2023/02/26 09:10:58;;;;;;;5.53;3.90;;;-1.30;99.90;;;;;;493988;239;29111;-77
2023/02/26 09:12:59;;;;;;;7.45;4.07;;;-1.30;99.90;;;;;;493977;241;27450;-76
2023/02/26 09:15:00;;;;;;;3.78;3.47;;;-1.20;99.90;;;;;;493981;241;27579;-78
2023/02/26 09:17:01;;;;;;;3.85;3.47;;;-1.20;99.90;;;;;;493973;241;27482;-76
2023/02/26 09:19:03;;;;;;;4.60;3.25;;;-1.20;99.90;;;;;;493962;241;27613;-77
2023/02/26 09:21:04;;;;;;;5.37;3.50;;;-1.30;99.90;;;;;;493968;241;27654;-76
2023/02/26 09:23:05;;;;;;;5.90;3.53;;;-1.20;99.90;;;;;;493973;241;27483;-76
2023/02/26 09:25:06;;;;;;;4.05;3.65;;;-1.20;99.90;;;;;;493960;241;27514;-77
2023/02/26 09:27:08;;;;;;;4.43;3.05;;;-1.00;99.90;;;;;;493970;237;28169;-77
2023/02/26 09:29:10;;;;;;;6.70;3.20;;;-0.90;99.90;;;;;;489816;241;36656;-76
2023/02/26 09:31:10;;;;;;;6.80;3.55;;;-0.90;99.90;;;;;;493943;241;28084;-77
2023/02/26 09:33:11;;;;;;;9.48;3.62;;;-0.90;99.90;;;;;;493668;241;27460;-77
2023/02/26 09:35:13;;;;;;;6.07;3.50;;;-1.00;99.90;;;;;;493969;241;27534;-76
2023/02/26 09:37:14;;;;;;;6.50;3.67;;;-1.00;99.90;;;;;;493979;241;27472;-77
2023/02/26 09:39:15;;;;;;;7.72;4.28;;;-1.00;99.90;;;;;;494004;241;27475;-76
2023/02/26 09:41:16;;;;;;;12.02;3.00;;;-1.00;99.90;;;;;;493999;241;27608;-77
2023/02/26 09:43:18;;;;;;;3.22;2.92;;;-1.10;99.90;;;;;;493972;241;27477;-77
2023/02/26 09:45:19;;;;;;;5.93;3.95;;;-1.10;99.90;;;;;;493956;241;28076;-77
2023/02/26 09:47:20;;;;;;;3.80;3.30;;;-1.00;99.90;;;;;;493974;241;28681;-76
2023/02/26 09:49:21;;;;;;;7.25;4.10;;;-1.00;99.90;;;;;;493980;241;27943;-76
2023/02/26 09:51:23;;;;;;;6.78;3.53;;;-0.90;99.90;;;;;;493955;241;27533;-77
2023/02/26 09:53:24;;;;;;;7.62;3.75;;;-0.80;99.90;;;;;;493973;241;27461;-76
2023/02/26 09:55:25;;;;;;;5.80;3.40;;;-0.70;99.90;;;;;;493974;241;27522;-76
2023/02/26 09:57:26;;;;;;;5.37;3.35;;;-0.80;99.90;;;;;;493982;241;27485;-77
2023/02/26 09:59:28;;;;;;;3.80;3.40;;;-0.80;99.90;;;;;;494011;237;27483;-77
2023/02/26 10:01:29;;;;;;;14.25;4.53;;;-0.80;99.90;;;;;;493992;241;27510;-76
2023/02/26 10:03:30;;;;;;;7.43;4.60;;;-0.70;99.90;;;;;;493973;241;27553;-77
2023/02/26 10:05:32;;;;;;;6.28;3.72;;;-0.70;99.90;;;;;;493995;241;27948;-76
2023/02/26 10:07:33;;;;;;;10.05;4.00;;;-0.80;99.90;;;;;;493974;237;28070;-77
2023/02/26 10:09:34;;;;;;;9.57;6.35;;;-0.70;99.90;;;;;;494016;241;27548;-77
2023/02/26 10:11:35;;;;;;;5.35;3.80;;;-0.70;99.90;;;;;;493990;241;27605;-77
2023/02/26 10:13:36;;;;;;;4.90;3.85;;;-0.80;99.90;;;;;;494003;241;27560;-77
2023/02/26 10:15:38;;;;;;;8.05;3.72;;;-0.70;99.90;;;;;;493993;241;27514;-77
2023/02/26 10:17:39;;;;;;;4.25;3.95;;;-0.60;99.90;;;;;;494011;241;27926;-76
2023/02/26 10:19:40;;;;;;;4.87;4.22;;;-0.50;99.90;;;;;;494007;237;27481;-77
2023/02/26 10:21:41;;;;;;;4.68;4.03;;;-0.30;99.90;;;;;;493963;241;27602;-77
2023/02/26 10:23:44;;;;;;;5.50;4.20;;;-0.60;99.90;;;;;;493991;241;27644;-76
2023/02/26 10:25:44;;;;;;;4.97;4.57;;;-0.70;99.90;;;;;;493843;241;27938;-77
2023/02/26 10:27:45;;;;;;;5.07;3.62;;;-0.70;99.90;;;;;;493992;241;28031;-77
2023/02/26 10:29:47;;;;;;;4.72;4.18;;;-0.70;99.90;;;;;;493970;241;27457;-76
2023/02/26 10:31:48;;;;;;;5.95;5.07;;;-0.60;99.90;;;;;;493988;241;27500;-78